Accueil
METAR-TAF:

METAR-TAF

Aéroports :

Bergerac, France

Aéroport de Bergerac-Dordogne-Périgord

latitude: 44-49N, longitude: 000-31E, altitude: 51 m

Observation

Le bulletin a été fait il y a 17 minutes, à 20:00 UTC
Vent 5 kt de est
Température 10°C
Humidité 82%
Pression 1017 hPa
Visibilité 10 km ou plus
pas de nuages en-dessous de 1500 mètres et pas de cumulonimbus.

METAR: LFBE 042000Z AUTO 09005KT CAVOK 10/07 Q1017 TEMPO 4500 BCFG

Heure: 21:17 (20:17 UTC)

Prévision

Le bulletin a été fait il y a 3 heures et 17 minutes, à 17:00 UTC
Prévision valable du 04 à 18 UTC au 05 à 18 UTC
Vent 8 kt de est/sud-est
Visibilité: 8000 m
Nuages épars à une hauteur de 3000 ft
Temporairement
du 04 à 21 UTC au 05 à 10 UTC
Visibilité: 4500 m

TAF: LFBE 041700Z 0418/0518 11008KT 8000 SCT030 TEMPO 0421/0510 4500

Observations et prévisions météorologiques de plus de 4000 aéroports (messages METAR et TAF).

Les stations disponibles sont représentées par des disques jaunes et rouges sur la carte.

Passer la souris dessus pour voir le nom de la station.

Cliquer dessus pour voir les observations et prévisions météorologiques.

Pour changer de carte: cliquez sur les boutons verts avec une croix noire pour zoomer, sur le bouton vert avec un tiret pour effectuer un zoom arrière, ou sur les flèches vertes pour les cartes adjacentes.


METAR-TAF: